createdAt,value
2023-11-12T00:00:16.263Z,94.83
2023-11-12T00:05:21.011Z,95.13
2023-11-12T00:10:24.746Z,95.13
2023-11-12T00:15:28.457Z,94.62
2023-11-12T00:20:31.965Z,93.98
2023-11-12T00:25:36.046Z,93.10
2023-11-12T00:30:39.701Z,92.28
2023-11-12T00:35:43.505Z,90.81
2023-11-12T00:40:48.010Z,90.44
2023-11-12T00:45:59.512Z,89.78
2023-11-12T00:51:03.463Z,89.63
2023-11-12T00:56:09.196Z,88.59
2023-11-12T01:01:15.495Z,88.33
2023-11-12T01:06:19.244Z,87.10
2023-11-12T01:11:22.952Z,87.22
2023-11-12T01:16:27.196Z,86.91
2023-11-12T01:21:30.862Z,86.37
2023-11-12T01:26:35.244Z,86.29
2023-11-12T01:31:38.860Z,86.73
2023-11-12T01:36:42.693Z,85.76
2023-11-12T01:41:46.406Z,85.90
2023-11-12T01:46:52.646Z,86.41
2023-11-12T01:51:56.290Z,86.84
2023-11-12T01:57:01.769Z,86.83
2023-11-12T02:02:06.558Z,87.10
2023-11-12T02:07:10.190Z,86.54
2023-11-12T02:12:14.712Z,86.36
2023-11-12T02:17:18.490Z,86.38
2023-11-12T02:22:22.048Z,86.47
2023-11-12T02:27:25.609Z,86.72
2023-11-12T02:32:36.032Z,86.46
2023-11-12T02:37:40.054Z,86.16
2023-11-12T02:42:44.608Z,85.63
2023-11-12T02:47:48.642Z,85.89
2023-11-12T02:52:55.011Z,86.07
2023-11-12T02:57:59.666Z,86.06
2023-11-12T03:03:03.979Z,85.65
2023-11-12T03:08:07.900Z,86.38
2023-11-12T03:13:11.531Z,86.35
2023-11-12T03:18:15.377Z,86.09
2023-11-12T03:23:19.200Z,86.10
2023-11-12T03:28:22.751Z,86.56
2023-11-12T03:33:29.073Z,86.43
2023-11-12T03:38:33.138Z,86.53
2023-11-12T03:43:36.775Z,86.86
2023-11-12T03:48:40.515Z,87.03
2023-11-12T03:53:43.982Z,86.33
2023-11-12T03:58:47.832Z,86.39
2023-11-12T04:03:53.207Z,86.72
2023-11-12T04:08:57.049Z,86.86
2023-11-12T04:14:00.704Z,87.01
2023-11-12T04:19:05.013Z,86.98
2023-11-12T04:24:09.584Z,87.04
2023-11-12T04:29:14.569Z,87.02
2023-11-12T04:34:18.184Z,86.58
2023-11-12T04:39:21.938Z,86.67
2023-11-12T04:44:26.455Z,86.30
2023-11-12T04:49:30.180Z,87.04
2023-11-12T04:54:34.134Z,87.36
2023-11-12T04:59:42.164Z,87.78
2023-11-12T05:04:46.001Z,88.21
2023-11-12T05:09:49.793Z,88.57
2023-11-12T05:14:53.419Z,88.40
2023-11-12T05:19:57.246Z,88.34
2023-11-12T05:25:01.069Z,88.30
2023-11-12T05:30:05.222Z,88.09
2023-11-12T05:35:09.942Z,88.46
2023-11-12T05:40:13.885Z,88.68
2023-11-12T05:45:19.196Z,88.91
2023-11-12T05:50:24.401Z,88.63
2023-11-12T05:55:29.695Z,88.78
2023-11-12T06:00:33.729Z,89.11
2023-11-12T06:05:37.507Z,89.44
2023-11-12T06:10:44.425Z,89.49
2023-11-12T06:15:48.229Z,89.46
2023-11-12T06:20:52.010Z,89.37
2023-11-12T06:25:55.842Z,89.46
2023-11-12T06:30:59.383Z,90.14
2023-11-12T06:36:03.198Z,89.54
2023-11-12T06:41:09.852Z,89.76
2023-11-12T06:46:13.636Z,89.32
2023-11-12T06:51:25.097Z,87.27
2023-11-12T06:56:36.605Z,86.26
2023-11-12T07:01:40.372Z,83.34
2023-11-12T07:06:57.139Z,81.89
2023-11-12T07:12:08.571Z,79.26
2023-11-12T07:17:15.421Z,78.58
2023-11-12T07:22:19.947Z,75.23
2023-11-12T07:27:24.649Z,76.54
2023-11-12T07:32:28.344Z,75.25
2023-11-12T07:37:32.003Z,75.81
2023-11-12T07:42:35.962Z,77.17
2023-11-12T07:47:40.228Z,75.69
2023-11-12T07:52:44.155Z,75.80
2023-11-12T07:57:48.372Z,75.70
2023-11-12T08:02:53.072Z,76.21
2023-11-12T08:07:56.997Z,76.85
2023-11-12T08:13:00.744Z,77.40
2023-11-12T08:18:06.618Z,77.25
2023-11-12T08:23:10.459Z,76.36
2023-11-12T08:28:14.361Z,76.44
2023-11-12T08:33:18.632Z,76.67
2023-11-12T08:38:22.438Z,76.98
2023-11-12T08:43:26.032Z,76.70
2023-11-12T08:48:33.147Z,75.14
2023-11-12T08:53:38.363Z,75.56
2023-11-12T08:58:42.111Z,75.12
2023-11-12T09:03:45.774Z,74.75
2023-11-12T09:08:49.370Z,74.56
2023-11-12T09:13:52.993Z,74.79
2023-11-12T09:18:57.188Z,72.50
2023-11-12T09:24:01.357Z,73.23
2023-11-12T09:29:05.171Z,72.56
2023-11-12T09:34:08.886Z,70.85
2023-11-12T09:39:14.383Z,70.60
2023-11-12T09:44:35.434Z,69.64
2023-11-12T09:49:43.867Z,68.32
2023-11-12T09:54:48.607Z,69.40
2023-11-12T09:59:53.172Z,69.14
2023-11-12T10:05:02.137Z,67.89
2023-11-12T10:10:25.703Z,66.56
2023-11-12T10:15:34.948Z,64.34
2023-11-12T10:20:41.521Z,58.99
2023-11-12T10:25:49.712Z,59.83
2023-11-12T10:30:55.167Z,60.73
2023-11-12T10:36:10.206Z,61.06
2023-11-12T10:41:14.042Z,62.72
2023-11-12T10:46:17.889Z,63.44
2023-11-12T10:51:21.797Z,64.85
2023-11-12T10:56:28.484Z,65.40
2023-11-12T11:01:35.483Z,64.77
2023-11-12T11:06:42.345Z,65.11
2023-11-12T11:11:50.497Z,65.45
2023-11-12T11:16:54.984Z,64.84
2023-11-12T11:22:30.852Z,64.75
2023-11-12T11:27:34.751Z,64.52
2023-11-12T11:32:38.679Z,65.60
2023-11-12T11:38:11.466Z,65.92
2023-11-12T11:43:24.631Z,66.46
2023-11-12T11:48:28.975Z,66.51
2023-11-12T11:53:33.281Z,67.59
2023-11-12T11:58:52.860Z,67.90
2023-11-12T12:04:07.198Z,67.10
2023-11-12T12:09:18.052Z,66.69
2023-11-12T12:14:25.677Z,66.66
2023-11-12T12:19:29.436Z,65.37
2023-11-12T12:29:39.432Z,64.64
2023-11-12T12:34:46.315Z,65.50
2023-11-12T12:39:54.672Z,66.38
2023-11-12T12:44:59.904Z,65.94
2023-11-12T12:50:17.181Z,64.80
2023-11-12T12:55:22.678Z,66.40
2023-11-12T13:00:26.790Z,67.24
2023-11-12T13:05:30.418Z,66.40
2023-11-12T13:10:35.333Z,66.11
2023-11-12T13:15:39.156Z,66.09
2023-11-12T13:20:44.124Z,66.50
2023-11-12T13:25:51.164Z,65.71
2023-11-12T13:30:55.420Z,65.96
2023-11-12T13:36:01.273Z,65.83
2023-11-12T13:41:05.408Z,65.78
2023-11-12T13:46:09.113Z,65.58
2023-11-12T13:51:15.642Z,64.75
2023-11-12T13:56:19.341Z,65.49
2023-11-12T14:01:24.923Z,66.29
2023-11-12T14:06:28.561Z,66.01
2023-11-12T14:11:32.080Z,66.42
2023-11-12T14:16:39.004Z,66.61
2023-11-12T14:21:46.526Z,67.13
2023-11-12T14:26:51.177Z,66.03
2023-11-12T14:31:54.816Z,66.55
2023-11-12T14:36:58.886Z,67.85
2023-11-12T14:42:04.430Z,68.61
2023-11-12T14:47:07.998Z,69.50
2023-11-12T14:52:12.565Z,70.97
2023-11-12T14:57:17.864Z,72.70
2023-11-12T15:02:21.860Z,73.99
2023-11-12T15:07:25.786Z,75.53
2023-11-12T15:12:30.720Z,76.76
2023-11-12T15:17:34.328Z,77.54
2023-11-12T15:22:38.714Z,79.53
2023-11-12T15:27:46.587Z,81.14
2023-11-12T15:32:50.472Z,82.59
2023-11-12T15:37:54.284Z,83.29
2023-11-12T15:42:58.491Z,84.10
2023-11-12T15:48:02.107Z,85.01
2023-11-12T15:53:06.136Z,85.59
2023-11-12T15:58:12.369Z,86.29
2023-11-12T16:03:18.860Z,87.06
2023-11-12T16:08:22.943Z,87.60
2023-11-12T16:13:26.896Z,88.37
2023-11-12T16:18:30.341Z,88.72
2023-11-12T16:23:34.304Z,89.04
2023-11-12T16:28:39.544Z,90.32
2023-11-12T16:33:43.352Z,90.72
2023-11-12T16:38:46.911Z,91.60
2023-11-12T16:43:50.648Z,92.44
2023-11-12T16:48:54.968Z,93.24
2023-11-12T16:53:58.538Z,93.68
2023-11-12T16:59:02.034Z,94.11
2023-11-12T17:04:06.145Z,94.75
2023-11-12T17:09:13.417Z,95.60
2023-11-12T17:14:18.286Z,96.07
2023-11-12T17:19:22.379Z,96.42
2023-11-12T17:24:25.932Z,96.86
2023-11-12T17:29:29.564Z,97.59
2023-11-12T17:34:33.237Z,98.01
2023-11-12T17:39:37.148Z,98.48
2023-11-12T17:44:43.102Z,98.96
2023-11-12T17:49:56.470Z,99.53
2023-11-12T17:55:00.250Z,100.00
2023-11-12T18:00:07.372Z,100.00
2023-11-12T18:05:11.346Z,100.00
2023-11-12T18:10:15.206Z,100.00
2023-11-12T18:15:20.517Z,100.00
2023-11-12T18:20:25.207Z,100.00
2023-11-12T18:25:28.682Z,100.00
2023-11-12T18:30:32.698Z,100.00
2023-11-12T18:35:36.934Z,100.00
2023-11-12T18:40:43.259Z,100.00
2023-11-12T18:45:46.830Z,100.00
2023-11-12T18:50:52.120Z,100.00
2023-11-12T18:55:56.215Z,100.00
2023-11-12T19:01:00.768Z,100.00
2023-11-12T19:06:04.584Z,100.00
2023-11-12T19:11:08.602Z,100.00
2023-11-12T19:16:12.439Z,100.00
2023-11-12T19:21:16.427Z,100.00
2023-11-12T19:26:23.564Z,100.00
2023-11-12T19:31:33.163Z,100.00
2023-11-12T19:36:41.514Z,100.00
2023-11-12T19:41:45.297Z,100.00
2023-11-12T19:46:49.205Z,100.00
2023-11-12T19:51:52.756Z,100.00
2023-11-12T19:56:58.779Z,100.00
2023-11-12T20:02:07.625Z,100.00
2023-11-12T20:07:11.694Z,100.00
2023-11-12T20:12:15.554Z,100.00
2023-11-12T20:17:19.204Z,100.00
2023-11-12T20:22:22.959Z,100.00
2023-11-12T20:27:26.633Z,100.00
2023-11-12T20:32:30.301Z,100.00
2023-11-12T20:37:34.029Z,100.00
2023-11-12T20:42:38.884Z,100.00
2023-11-12T20:47:42.582Z,100.00
2023-11-12T20:52:46.975Z,100.00
2023-11-12T20:57:53.477Z,100.00
2023-11-12T21:02:57.369Z,100.00
2023-11-12T21:08:01.368Z,100.00
2023-11-12T21:13:04.908Z,100.00
2023-11-12T21:18:12.709Z,100.00
2023-11-12T21:23:16.343Z,100.00
2023-11-12T21:28:21.599Z,100.00
2023-11-12T21:33:25.433Z,100.00
2023-11-12T21:38:28.996Z,100.00
2023-11-12T21:43:33.865Z,100.00
2023-11-12T21:48:38.975Z,100.00
2023-11-12T21:53:42.763Z,100.00
2023-11-12T21:58:46.875Z,100.00
2023-11-12T22:03:51.513Z,100.00
2023-11-12T22:08:56.357Z,100.00
2023-11-12T22:14:00.770Z,100.00
2023-11-12T22:19:08.978Z,100.00
2023-11-12T22:24:12.710Z,100.00
2023-11-12T22:29:16.207Z,100.00
2023-11-12T22:34:22.434Z,100.00
2023-11-12T22:39:26.338Z,100.00
2023-11-12T22:44:30.320Z,100.00
2023-11-12T22:49:33.973Z,100.00
2023-11-12T22:54:38.376Z,100.00
2023-11-12T22:59:42.531Z,100.00
2023-11-12T23:04:46.124Z,100.00
2023-11-12T23:09:49.935Z,100.00
2023-11-12T23:14:53.482Z,100.00
2023-11-12T23:19:57.127Z,100.00
2023-11-12T23:25:01.805Z,100.00
2023-11-12T23:30:08.575Z,100.00
2023-11-12T23:35:12.489Z,100.00
2023-11-12T23:40:16.398Z,100.00
2023-11-12T23:45:20.042Z,100.00
2023-11-12T23:50:26.859Z,100.00
2023-11-12T23:55:30.475Z,100.00
